Arbyrd, MO

6:58 AM CDT on August 17, 2019 (GMT -0500)
Dennis Prince Weather Station | | Change Station

Elev 242 ft 36.04 °N, 90.29 °W | Updated 39 seconds ago

Clear
Clear
73.6 °F
Feels Like 72 °F
N
0
Wind Variable Wind from ENE
Gusts 0.0 mph

Today
High -- | Low -- °F
--% Chance of Precip.
Yesterday
High -- | Low -- °F
Precip. -- in
Pressure 29.96 in
Visibility 7.0 miles
Clouds Clear
Heat Index 72 °F
Dew Point 70 °F
Humidity 90%
Rainfall 0.00 in
Snow Depth Not available.
6:20 AM 7:48 PM
Waning Gibbous, 96% visible
METAR KHKA 171153Z AUTO 20003KT 7SM CLR 24/21 A2997 RMK AO2 SLP145 T02390211 10256 20228 51021 $
Pressure 29.96 in
Visibility 7.0 miles
Clouds Clear
Heat Index 72 °F
Dew Point 70 °F
Humidity 90%
Rainfall 0.00 in
Snow Depth Not available.
6:20 AM 7:48 PM
Waning Gibbous, 96% visible
METAR KHKA 171153Z AUTO 20003KT 7SM CLR 24/21 A2997 RMK AO2 SLP145 T02390211 10256 20228 51021 $

Get Severe Weather Alerts

Thanks for signing up!

Be on the lookout for a verification email in your inbox.

You'll start receiving the daily forecast at 6 AM.

×

10-Day Weather Forecast

Almanac

Astronomy

Aug. 17, 2019 Rise Set
Actual Time
Civil Twilight
Nautical Twilight
Astronomical Twilight
Moon
Length of Visible Light
Length of Day
Tomorrow will be .
, % of the Moon is Illuminated

Today's Extremes

State Highs State Lows

Community

WunderPhotos

Category 6

Welcome to Category 6. This is the collective home for Weather Underground's featured writeups by Dr. Jeff Masters (right), Bob Henson (left), Chris Burt, and other regular contributors.

Nearby

Air Quality

  Air Quality AQ Index Pollutant
Not available.

Snow Depth

Station Depth Elevation

Earthquake Activity

City Distance Mag. Time & Date
Minimum magnitude displayed is 2.5.

Coastal Water Temperatures

Place Temperature

Stations

Nearby Weather Stations

Station Location Temp. Windchill Dew Point Humidity Wind Precip. Elev Updated Type
                   

Watches & Warnings

There are currently no watches in effect.